Terminal Aerodrome Forecast
Issued by NWS

Home | Current Version | Previous Version | Text Only | Print | Product List | Glossary On
Versions: 1 2 3 4 5 6 7 8 9 10 11 12 13 14
488
FTUS42 KMLB 292336
TAFLEE
TAF
KLEE 292336Z 3000/3024 04005KT P6SM VCSH FEW040 BKN100
     FM300200 16003KT P6SM FEW040 BKN250
     FM301500 25004KT P6SM SCT025
     FM302100 06008KT P6SM VCTS SCT050CB BKN250=

USA.gov is the U.S. government's official web portal to all federal, state and local government web resources and services.